Time;durP1;ratioP1;P1;durP2;ratioP2;P2;SDS_P1;SDS_P2;PMS_P1;PMS_P2;Temp;Humidity;BMP_temperature;BMP_pressure;BME280_temperature;BME280_humidity;BME280_pressure;Samples;Min_cycle;Max_cycle;Signal;HPM_P1;HPM_P2
2023/03/08 00:01:28;;;;;;;16.25;9.40;;;7.90;47.20;;;3.05;64.59;94358.56;4977631;28;20030;-50
2023/03/08 00:04:01;;;;;;;17.40;10.13;;;7.90;47.20;;;3.00;64.68;94354.81;4956014;28;20085;-50
2023/03/08 00:06:27;;;;;;;15.32;8.38;;;7.90;47.30;;;3.06;64.58;94352.25;4969855;28;20107;-51
2023/03/08 00:09:01;;;;;;;19.90;10.57;;;7.90;47.20;;;3.08;63.97;94355.44;4955357;28;20088;-49
2023/03/08 00:11:28;;;;;;;17.52;9.68;;;7.90;47.30;;;3.10;64.64;94351.50;4970417;28;20022;-49
2023/03/08 00:14:03;;;;;;;16.63;8.82;;;7.90;47.20;;;3.12;64.45;94354.69;4972898;28;20184;-52
2023/03/08 00:16:29;;;;;;;17.77;8.80;;;7.90;47.20;;;3.12;64.39;94361.78;4955170;28;20037;-49
2023/03/08 00:18:55;;;;;;;19.85;9.65;;;7.90;47.20;;;3.08;64.40;94358.06;4939892;28;20489;-50
2023/03/08 00:21:21;;;;;;;17.40;9.00;;;7.90;47.20;;;3.06;64.16;94358.31;4958706;28;20022;-48
2023/03/08 00:23:52;;;;;;;16.67;9.30;;;7.90;47.20;;;3.07;64.86;94354.66;4962962;28;20025;-49
2023/03/08 00:26:18;;;;;;;19.00;8.88;;;7.90;47.20;;;3.06;64.98;94363.56;4955179;28;20497;-48
2023/03/08 00:28:46;;;;;;;17.35;9.00;;;7.90;47.20;;;3.06;64.76;94347.00;4951561;28;20033;-51
2023/03/08 00:31:13;;;;;;;21.33;9.68;;;7.90;47.20;;;3.05;65.27;94351.47;4948698;28;20023;-51
2023/03/08 00:33:42;;;;;;;15.75;9.05;;;7.90;47.30;;;3.03;65.36;94339.59;4933081;28;20153;-51
2023/03/08 00:36:18;;;;;;;17.45;9.80;;;7.90;47.30;;;3.05;65.38;94343.56;4953713;28;20026;-48
2023/03/08 00:38:51;;;;;;;19.88;9.25;;;7.90;47.40;;;3.01;64.93;94339.84;4968065;28;20049;-49
2023/03/08 00:41:18;;;;;;;20.13;9.90;;;7.90;47.40;;;3.06;65.28;94341.72;4971785;28;20022;-48
2023/03/08 00:44:03;;;;;;;18.38;9.93;;;7.90;47.40;;;2.99;65.25;94321.66;4955646;28;20018;-48
2023/03/08 00:46:29;;;;;;;16.55;9.50;;;7.90;47.50;;;3.06;65.93;94329.34;4944365;28;20084;-48
2023/03/08 00:48:55;;;;;;;17.45;9.98;;;7.90;47.50;;;3.06;65.95;94321.47;4969673;28;20070;-50
2023/03/08 00:51:21;;;;;;;19.48;9.52;;;7.90;47.60;;;3.11;65.81;94318.09;4972172;28;20026;-50
2023/03/08 00:54:02;;;;;;;18.05;9.65;;;7.90;48.20;;;3.10;66.42;94316.50;4954439;28;20030;-48
2023/03/08 00:56:28;;;;;;;19.00;9.30;;;7.90;47.60;;;3.04;66.12;94310.41;4951217;28;20109;-53
2023/03/08 00:58:54;;;;;;;17.10;9.55;;;7.90;47.70;;;3.05;66.13;94303.31;4960585;28;20125;-50
2023/03/08 01:01:29;;;;;;;19.10;9.45;;;7.90;47.80;;;3.05;66.55;94303.31;4957527;28;20169;-53
2023/03/08 01:03:54;;;;;;;17.35;9.40;;;7.90;47.80;;;3.07;67.16;94299.41;4970972;28;20041;-50
2023/03/08 01:06:27;;;;;;;21.02;10.23;;;7.90;47.80;;;3.09;66.86;94299.91;4936805;28;20026;-49
2023/03/08 01:08:55;;;;;;;18.65;10.02;;;7.90;47.90;;;3.10;66.89;94298.06;4954872;28;20037;-50
2023/03/08 01:11:26;;;;;;;19.20;10.60;;;7.90;47.90;;;3.10;66.97;94287.56;4973194;28;20133;-50
2023/03/08 01:13:53;;;;;;;24.70;10.02;;;7.90;48.00;;;3.09;66.98;94280.72;4954960;28;20033;-49
2023/03/08 01:16:29;;;;;;;18.02;10.07;;;7.90;48.10;;;3.10;67.06;94269.94;4950564;28;20022;-51
2023/03/08 01:19:03;;;;;;;17.70;9.88;;;7.90;48.00;;;3.10;67.00;94264.66;4974924;28;20050;-49
2023/03/08 01:21:31;;;;;;;18.98;10.15;;;7.90;48.00;;;3.10;67.07;94267.28;4950735;28;20022;-51
2023/03/08 01:24:00;;;;;;;21.70;9.82;;;7.90;48.00;;;3.11;67.13;94253.13;4962036;28;20026;-51
2023/03/08 01:26:27;;;;;;;19.75;10.32;;;7.90;48.00;;;3.06;68.13;94254.91;4953813;28;20041;-48
2023/03/08 01:28:56;;;;;;;17.52;9.70;;;8.00;48.10;;;3.06;68.24;94233.84;4937661;28;20058;-49
2023/03/08 01:31:29;;;;;;;17.73;9.38;;;7.90;48.10;;;3.00;68.83;94233.78;4946654;28;20039;-48
2023/03/08 01:33:58;;;;;;;;;;;8.00;48.20;;;2.96;69.14;94224.81;4964050;28;20030;-48
2023/03/08 01:36:27;;;;;;;21.63;10.00;;;7.90;48.00;;;2.96;69.53;94221.41;4957926;28;19915;-48
2023/03/08 01:39:00;;;;;;;21.17;10.18;;;7.90;48.10;;;2.92;69.14;94217.69;4984152;28;20030;-52
2023/03/08 01:41:31;;;;;;;22.88;10.88;;;7.90;48.20;;;2.91;69.18;94216.09;4969439;28;20026;-49
2023/03/08 01:43:56;;;;;;;20.42;10.40;;;7.90;48.20;;;2.90;69.43;94215.28;4953786;28;20019;-50
2023/03/08 01:46:33;;;;;;;19.52;10.20;;;7.90;48.20;;;2.89;69.66;94215.56;4969504;28;20358;-48
2023/03/08 01:49:32;;;;;;;15.95;8.82;;;7.90;48.30;;;2.87;69.58;94209.75;4982660;28;20362;-50
2023/03/08 01:52:11;;;;;;;19.38;9.85;;;7.90;48.40;;;2.88;70.00;94203.44;4952496;28;20482;-49
2023/03/08 01:54:50;;;;;;;16.48;9.30;;;7.80;48.40;;;2.88;69.51;94196.34;4949669;28;20057;-52
2023/03/08 01:58:01;;;;;;;17.88;9.73;;;7.80;48.40;;;2.88;70.05;94187.66;4957792;28;20023;-48
2023/03/08 02:00:27;;;;;;;15.70;9.18;;;7.80;48.40;;;2.86;69.87;94187.91;4940952;28;20138;-51
2023/03/08 02:03:09;;;;;;;17.70;10.32;;;7.80;48.50;;;2.86;69.28;94187.91;4953596;28;20018;-50
2023/03/08 02:05:40;;;;;;;16.63;9.90;;;7.80;48.50;;;2.90;69.31;94189.00;4948789;28;20073;-50
2023/03/08 02:08:06;;;;;;;17.25;9.82;;;7.80;48.60;;;2.92;69.25;94188.75;4953953;28;20042;-48
2023/03/08 02:10:37;;;;;;;16.95;9.93;;;7.80;48.60;;;2.95;69.24;94188.25;4953711;28;20469;-49
2023/03/08 02:13:08;;;;;;;18.40;10.15;;;7.80;48.70;;;2.97;69.39;94192.19;4972760;28;20042;-54
2023/03/08 02:15:34;;;;;;;21.42;9.90;;;7.80;48.70;;;2.97;68.76;94189.56;4953662;28;20041;-53
2023/03/08 02:18:00;;;;;;;17.40;10.35;;;7.80;48.70;;;2.99;68.84;94197.22;4955572;28;20117;-53
2023/03/08 02:20:40;;;;;;;18.98;10.18;;;7.80;48.70;;;3.01;68.39;94182.00;4951668;28;20106;-53
2023/03/08 02:23:23;;;;;;;17.33;10.43;;;7.90;48.80;;;3.02;68.67;94167.78;4971256;28;20044;-51
2023/03/08 02:26:01;;;;;;;18.60;10.57;;;7.90;48.80;;;3.04;69.32;94170.16;4951524;28;20554;-51
2023/03/08 02:28:29;;;;;;;18.63;10.57;;;7.90;48.90;;;3.05;69.01;94167.28;4953490;28;20040;-51
2023/03/08 02:30:57;;;;;;;20.30;10.55;;;7.90;48.80;;;3.04;69.65;94170.16;4968475;28;20088;-53
2023/03/08 02:33:23;;;;;;;20.17;11.00;;;7.90;48.90;;;3.04;69.86;94167.53;4942622;28;20134;-54
2023/03/08 02:35:50;;;;;;;18.75;10.45;;;7.90;48.90;;;3.04;70.04;94172.78;4953044;28;20023;-50
2023/03/08 02:38:20;;;;;;;19.98;11.15;;;7.90;49.00;;;3.02;70.05;94159.91;4948821;28;20042;-47
2023/03/08 02:40:50;;;;;;;16.42;9.77;;;7.90;49.00;;;2.97;70.15;94151.97;4931084;28;20382;-53
2023/03/08 02:43:17;;;;;;;16.38;10.30;;;7.80;49.00;;;2.92;70.99;94144.03;4958465;28;20073;-52
2023/03/08 02:45:43;;;;;;;16.35;9.77;;;7.80;49.00;;;2.86;70.78;94140.56;4948167;28;20034;-49
2023/03/08 02:48:09;;;;;;;17.27;9.50;;;7.80;49.10;;;2.78;71.63;94136.56;4960356;28;20370;-51
2023/03/08 02:50:35;;;;;;;22.17;11.65;;;7.70;49.00;;;2.71;71.25;94129.94;4952937;28;20504;-51
2023/03/08 02:53:03;;;;;;;20.25;10.77;;;7.70;49.10;;;2.62;71.77;94126.97;4966859;28;20038;-51
2023/03/08 02:55:29;;;;;;;20.08;11.38;;;7.60;49.10;;;2.53;72.14;94121.34;4967684;28;20029;-52
2023/03/08 02:58:05;;;;;;;18.20;11.07;;;7.50;49.10;;;2.48;72.73;94120.53;4968244;28;20415;-48
2023/03/08 03:00:31;;;;;;;19.98;11.27;;;7.50;49.30;;;2.42;72.57;94111.81;4958538;28;20038;-51
2023/03/08 03:02:57;;;;;;;18.90;10.27;;;7.40;49.30;;;2.35;72.91;94099.91;4968527;28;20026;-50
2023/03/08 03:05:24;;;;;;;19.52;10.95;;;7.30;49.40;;;2.26;73.61;94092.47;4949673;28;20728;-49
2023/03/08 03:07:50;;;;;;;18.83;10.90;;;7.20;49.50;;;2.18;74.30;94095.53;4974270;28;20018;-48
2023/03/08 03:10:16;;;;;;;15.65;9.88;;;7.20;49.60;;;2.10;74.68;94088.13;4929507;29;20501;-50
2023/03/08 03:12:51;;;;;;;23.80;10.18;;;7.10;49.70;;;2.06;74.65;94089.63;4967832;28;20037;-50
2023/03/08 03:15:17;;;;;;;21.08;11.00;;;7.00;49.80;;;2.02;74.63;94085.94;4952969;28;20102;-52
2023/03/08 03:17:43;;;;;;;18.75;10.57;;;7.00;49.80;;;1.98;74.55;94090.09;4944563;28;20117;-49
2023/03/08 03:20:10;;;;;;;20.58;11.48;;;6.90;49.90;;;1.93;74.72;94080.31;4952718;28;20358;-48
2023/03/08 03:22:36;;;;;;;22.92;11.32;;;6.90;50.00;;;1.87;75.24;94083.13;4949357;28;20518;-48
2023/03/08 03:25:04;;;;;;;16.02;10.00;;;6.80;50.10;;;1.83;75.31;94088.09;4967902;28;20026;-49
2023/03/08 03:27:33;;;;;;;16.45;9.80;;;6.80;50.20;;;1.77;76.82;94091.69;4953603;28;20077;-49
2023/03/08 03:29:59;;;;;;;17.58;9.23;;;6.80;50.30;;;1.78;76.40;94082.78;4931887;29;20038;-49
2023/03/08 03:32:28;;;;;;;17.02;9.20;;;6.80;50.40;;;1.78;76.96;94083.56;4950805;29;20037;-50
2023/03/08 03:34:56;;;;;;;17.67;10.40;;;6.70;50.50;;;1.76;77.21;94074.38;4931950;28;20030;-51
2023/03/08 03:37:22;;;;;;;19.27;9.30;;;6.70;50.60;;;1.77;77.47;94070.69;4954631;28;20029;-56
2023/03/08 03:39:50;;;;;;;18.30;9.13;;;6.80;50.70;;;1.81;77.48;94066.53;4943115;29;20401;-53
2023/03/08 03:42:19;;;;;;;15.95;9.00;;;6.70;50.80;;;1.85;77.93;94057.16;4948025;28;20049;-55
2023/03/08 03:44:54;;;;;;;17.42;9.95;;;6.70;50.90;;;1.88;77.36;94054.03;4914049;29;20030;-53
2023/03/08 03:47:23;;;;;;;16.23;10.27;;;6.80;51.70;;;1.93;77.10;94053.28;4948735;29;20528;-51
2023/03/08 03:49:55;;;;;;;21.00;10.05;;;6.80;51.10;;;1.98;77.04;94054.13;4930436;29;20052;-52
2023/03/08 03:52:30;;;;;;;16.02;8.63;;;6.80;51.20;;;2.04;77.00;94042.63;4949094;28;20032;-52
2023/03/08 03:55:06;;;;;;;16.05;8.60;;;6.90;51.30;;;2.08;76.74;94033.19;4948631;28;20063;-53
2023/03/08 03:57:32;;;;;;;15.40;8.65;;;6.90;51.40;;;2.12;76.71;94041.38;4954432;28;20033;-51
2023/03/08 03:59:58;;;;;;;13.65;8.32;;;6.90;51.30;;;2.15;76.35;94037.44;4950211;28;20398;-53
2023/03/08 04:02:27;;;;;;;14.93;9.23;;;6.90;51.30;;;2.17;76.45;94036.16;4924709;29;20046;-53
2023/03/08 04:04:59;;;;;;;13.68;7.82;;;7.00;51.40;;;2.22;76.51;94033.56;4912279;28;20455;-56
2023/03/08 04:07:32;;;;;;;13.88;7.93;;;7.00;51.40;;;2.30;76.08;94025.25;4936072;28;20092;-49
2023/03/08 04:09:58;;;;;;;;;;;7.10;51.50;;;2.35;75.50;94023.69;4936035;28;20049;-52
2023/03/08 04:12:27;;;;;;;12.93;7.63;;;7.10;51.30;;;2.38;75.30;94016.09;4934538;28;19910;-50
2023/03/08 04:14:53;;;;;;;14.00;7.45;;;7.10;51.30;;;2.42;75.64;94025.06;4930093;29;20050;-50
2023/03/08 04:17:22;;;;;;;11.90;7.55;;;7.20;51.30;;;2.44;74.71;94016.94;4928407;28;20030;-51
2023/03/08 04:19:54;;;;;;;13.88;7.80;;;7.20;51.30;;;2.47;75.20;94005.91;4952591;28;20046;-51
2023/03/08 04:22:22;;;;;;;12.68;7.32;;;7.20;51.30;;;2.48;75.25;93995.16;4935432;28;20434;-55
2023/03/08 04:24:48;;;;;;;14.18;7.63;;;7.30;51.40;;;2.50;74.93;93995.69;4925606;28;20342;-47
2023/03/08 04:27:17;;;;;;;11.10;7.22;;;7.30;51.50;;;2.56;75.05;93991.25;4949235;28;20065;-52
2023/03/08 04:29:43;;;;;;;13.52;7.35;;;7.30;51.50;;;2.61;74.39;93995.78;4934045;28;20022;-55
2023/03/08 04:32:08;;;;;;;12.68;6.75;;;7.40;51.50;;;2.65;74.18;93994.22;4932905;28;20033;-53
2023/03/08 04:34:34;;;;;;;13.45;7.50;;;7.40;51.50;;;2.65;74.26;93996.84;4970263;28;20447;-56
2023/03/08 04:37:00;;;;;;;12.95;7.30;;;7.40;51.50;;;2.70;74.66;94002.16;4970534;28;20521;-55
2023/03/08 04:39:26;;;;;;;11.73;7.22;;;7.50;51.50;;;2.72;74.75;93998.19;4971709;28;20431;-57
2023/03/08 04:41:54;;;;;;;12.27;7.30;;;7.50;51.50;;;2.74;74.54;93995.31;4952381;28;20063;-56
2023/03/08 04:44:20;;;;;;;14.63;8.18;;;7.50;51.50;;;2.74;74.06;93995.31;4954028;28;20060;-57
2023/03/08 04:46:46;;;;;;;13.32;8.13;;;7.50;51.50;;;2.75;74.68;93987.16;4965098;28;20463;-54
2023/03/08 04:49:14;;;;;;;13.93;8.60;;;7.60;51.60;;;2.80;74.60;93985.63;4965090;28;20030;-56
2023/03/08 04:51:40;;;;;;;13.48;8.65;;;7.60;51.50;;;2.80;74.35;93986.41;4962640;28;20034;-55
2023/03/08 04:54:06;;;;;;;14.93;8.82;;;7.60;51.50;;;2.81;74.45;93977.47;4972460;28;20026;-57
2023/03/08 04:56:38;;;;;;;15.18;8.25;;;7.60;51.60;;;2.85;74.49;93985.63;4952144;28;20019;-54
2023/03/08 04:59:07;;;;;;;14.40;8.57;;;7.60;51.60;;;2.85;74.68;93980.38;4972168;28;20501;-52
2023/03/08 05:01:33;;;;;;;14.02;8.75;;;7.60;51.60;;;2.81;75.19;93987.22;4957235;28;20037;-51
2023/03/08 05:03:58;;;;;;;15.95;9.38;;;7.60;51.60;;;2.83;75.25;93987.75;4969232;28;20038;-55
2023/03/08 05:06:27;;;;;;;15.90;8.77;;;7.60;51.60;;;2.79;75.19;93979.59;4963196;28;20485;-55
2023/03/08 05:08:55;;;;;;;16.45;9.00;;;7.60;51.60;;;2.78;75.14;93981.41;4969621;28;20091;-52
2023/03/08 05:11:27;;;;;;;17.30;8.88;;;7.70;51.70;;;2.82;75.53;93978.25;4953853;28;20056;-57
2023/03/08 05:13:57;;;;;;;17.13;9.18;;;7.60;51.70;;;2.75;75.35;93965.34;4943511;28;20034;-53
2023/03/08 05:16:25;;;;;;;15.15;8.30;;;7.60;51.70;;;2.79;75.71;93966.44;4968599;28;20057;-52
2023/03/08 05:18:54;;;;;;;13.70;9.07;;;7.60;51.70;;;2.76;75.76;93973.00;4969309;28;20030;-56
2023/03/08 05:21:23;;;;;;;15.27;8.13;;;7.60;51.80;;;2.81;75.81;93972.22;4970676;28;20076;-54
2023/03/08 05:23:52;;;;;;;14.02;8.07;;;7.70;51.80;;;2.79;75.99;93955.91;4968354;28;20022;-54
2023/03/08 05:26:24;;;;;;;16.35;7.63;;;7.60;51.80;;;2.81;75.86;93950.38;4931098;28;20067;-57
2023/03/08 05:28:50;;;;;;;12.23;7.30;;;7.70;51.90;;;2.81;75.60;93940.66;4960232;28;20154;-54
2023/03/08 05:31:22;;;;;;;12.07;7.70;;;7.60;51.90;;;2.83;76.03;93937.78;4969184;28;20287;-52
2023/03/08 05:33:52;;;;;;;13.95;8.00;;;7.70;52.00;;;2.86;76.41;93937.28;4969935;28;20030;-50
2023/03/08 05:36:24;;;;;;;15.18;8.93;;;7.70;52.00;;;2.85;75.67;93930.41;4969689;28;20018;-55
2023/03/08 05:38:54;;;;;;;16.33;9.02;;;7.70;52.10;;;2.91;75.58;93937.28;4970356;28;20188;-56
2023/03/08 05:41:21;;;;;;;13.07;7.65;;;7.70;52.10;;;2.92;75.51;93944.94;4933501;28;20129;-57
2023/03/08 05:43:49;;;;;;;13.95;8.45;;;7.70;52.70;;;2.93;75.79;93933.34;4957995;28;20022;-57
2023/03/08 05:46:18;;;;;;;15.02;9.02;;;7.70;52.10;;;2.90;75.69;93938.34;4937253;28;20505;-57
2023/03/08 05:48:45;;;;;;;13.68;8.57;;;7.70;52.10;;;2.92;75.74;93936.25;4951469;28;20161;-57
2023/03/08 05:51:18;;;;;;;14.50;8.43;;;7.70;52.10;;;2.91;75.55;93940.69;4936929;28;20045;-57
2023/03/08 05:53:44;;;;;;;12.95;8.10;;;7.70;52.10;;;2.92;76.01;93936.25;4951456;28;20037;-55
2023/03/08 05:56:16;;;;;;;16.17;9.23;;;7.80;52.20;;;2.94;75.93;93928.88;4957710;28;20031;-57
2023/03/08 05:58:43;;;;;;;20.85;11.68;;;7.80;52.20;;;2.92;75.42;93929.16;4950701;28;20485;-54
2023/03/08 06:01:22;;;;;;;18.85;10.52;;;7.70;52.20;;;2.95;75.95;93930.47;4968037;28;20026;-55
2023/03/08 06:04:04;;;;;;;16.02;9.20;;;7.80;52.20;;;2.96;75.67;93921.53;4936873;28;20058;-53
2023/03/08 06:06:31;;;;;;;13.68;8.98;;;7.80;52.20;;;3.00;75.32;93919.97;4949007;28;20039;-55
2023/03/08 06:08:57;;;;;;;13.38;8.48;;;7.80;52.20;;;2.98;75.17;93925.50;4959703;28;20385;-54
2023/03/08 06:11:26;;;;;;;15.30;7.80;;;7.80;52.20;;;3.01;75.62;93929.44;4957172;28;20351;-56
2023/03/08 06:13:53;;;;;;;11.35;7.35;;;7.80;52.30;;;3.01;75.61;93919.72;4962123;28;20068;-55
2023/03/08 06:16:25;;;;;;;12.30;6.82;;;7.90;52.30;;;3.05;74.91;93913.94;4939108;28;20420;-56
2023/03/08 06:18:50;;;;;;;9.80;6.53;;;7.90;52.30;;;3.16;74.87;93918.97;4951965;28;20396;-52
2023/03/08 06:21:20;;;;;;;11.77;6.93;;;8.00;52.40;;;3.20;74.86;93908.72;4969039;28;20019;-57
2023/03/08 06:23:47;;;;;;;9.50;6.30;;;8.00;52.40;;;3.24;74.29;93878.22;4948941;28;20018;-55
2023/03/08 06:26:15;;;;;;;10.50;6.28;;;8.10;52.30;;;3.28;73.68;93889.78;4969164;28;20051;-56
2023/03/08 06:28:42;;;;;;;13.70;6.47;;;8.10;52.30;;;3.34;73.73;93888.75;4952214;28;20401;-54
2023/03/08 06:31:14;;;;;;;11.35;7.40;;;8.20;52.20;;;3.38;73.57;93886.38;4968922;28;20444;-51
2023/03/08 06:33:40;;;;;;;11.48;6.50;;;8.20;52.10;;;3.38;73.76;93874.00;4956626;28;20037;-51
2023/03/08 06:36:13;;;;;;;12.57;7.22;;;8.20;52.00;;;3.38;74.12;93874.00;4964640;28;20026;-55
2023/03/08 06:38:49;;;;;;;13.98;8.50;;;8.30;52.00;;;3.34;74.17;93862.44;4967049;28;20037;-55
2023/03/08 06:41:18;;;;;;;13.82;8.55;;;8.30;51.90;;;3.39;74.44;93867.72;4953437;28;20377;-55
2023/03/08 06:43:45;;;;;;;13.05;7.68;;;8.40;51.90;;;3.41;74.13;93870.84;4939416;28;20073;-56
2023/03/08 06:46:19;;;;;;;15.35;8.07;;;8.50;51.80;;;3.41;74.04;93885.88;4949475;28;20382;-57
2023/03/08 06:48:48;;;;;;;14.02;8.23;;;8.50;51.70;;;3.48;74.32;93903.00;4966649;28;20022;-56
2023/03/08 06:51:18;;;;;;;13.80;8.73;;;8.60;51.80;;;3.52;74.27;93905.91;4929613;28;20485;-55
2023/03/08 06:53:44;;;;;;;15.25;9.70;;;8.60;51.70;;;3.55;74.11;93908.00;4958711;28;20029;-57
2023/03/08 06:56:15;;;;;;;15.15;9.15;;;8.70;51.60;;;3.66;74.17;93898.28;4931326;29;20486;-53
2023/03/08 06:58:42;;;;;;;15.75;9.02;;;8.80;51.70;;;3.72;73.80;93898.00;4935819;28;20037;-56
2023/03/08 07:01:11;;;;;;;15.18;8.65;;;8.90;51.60;;;3.78;73.16;93890.91;4956103;28;20065;-57
2023/03/08 07:03:37;;;;;;;13.20;8.38;;;9.00;51.50;;;3.88;73.21;93890.13;4950020;28;20049;-53
2023/03/08 07:06:09;;;;;;;15.32;8.40;;;9.00;51.40;;;3.89;73.33;93879.34;4947407;29;20109;-53
2023/03/08 07:08:38;;;;;;;15.60;9.70;;;9.10;51.40;;;3.94;72.78;93870.63;4961517;28;20307;-56
2023/03/08 07:11:05;;;;;;;15.40;9.55;;;9.20;52.00;;;3.94;72.44;93858.25;4942172;28;20053;-51
2023/03/08 07:13:32;;;;;;;15.52;9.00;;;9.20;51.20;;;4.04;73.00;93869.81;4945306;28;20030;-55
2023/03/08 07:15:58;;;;;;;14.88;9.50;;;9.30;51.20;;;4.09;72.70;93861.94;4950528;28;20389;-57
2023/03/08 07:18:24;;;;;;;15.68;9.55;;;9.30;51.20;;;4.11;72.87;93860.63;4962460;28;20018;-55
2023/03/08 07:20:57;;;;;;;16.10;10.68;;;9.40;51.20;;;4.09;72.20;93864.56;4949850;28;20030;-54
2023/03/08 07:23:23;;;;;;;14.10;9.00;;;9.40;51.10;;;4.18;72.44;93871.66;4965847;28;20659;-54
2023/03/08 07:25:49;;;;;;;17.02;10.20;;;9.50;51.00;;;4.24;71.64;93863.75;4950152;28;20505;-55
2023/03/08 07:28:15;;;;;;;15.23;9.07;;;9.60;51.00;;;4.37;72.18;93857.94;4963505;28;20124;-55
2023/03/08 07:30:51;;;;;;;14.73;9.27;;;9.60;50.90;;;4.38;71.70;93859.50;4961914;28;20038;-54
2023/03/08 07:33:20;;;;;;;13.63;9.43;;;9.70;50.90;;;4.44;71.28;93857.66;4924609;28;23227;-57
2023/03/08 07:36:02;;;;;;;14.00;9.15;;;9.70;50.80;;;4.41;70.76;93861.59;4968570;28;20029;-57
2023/03/08 07:38:28;;;;;;;14.00;8.65;;;9.80;50.80;;;4.49;70.99;93858.44;4968914;28;20023;-57
2023/03/08 07:40:56;;;;;;;18.67;10.18;;;9.80;50.70;;;4.56;70.96;93858.94;4953656;28;20492;-54
2023/03/08 07:43:23;;;;;;;13.57;8.80;;;9.90;50.60;;;4.64;70.95;93855.75;4969953;28;20022;-53
2023/03/08 07:45:49;;;;;;;15.40;8.40;;;10.10;50.50;;;4.70;71.42;93874.16;4954666;28;20103;-53
2023/03/08 07:48:18;;;;;;;13.10;8.40;;;10.20;50.40;;;4.84;70.51;93885.75;4966317;28;20032;-57
2023/03/08 07:50:50;;;;;;;14.82;9.05;;;10.20;50.40;;;4.86;69.88;93892.34;4958391;28;20065;-57
2023/03/08 07:53:16;;;;;;;11.10;8.03;;;10.30;50.30;;;4.82;70.77;93911.59;4970234;28;20046;-57
2023/03/08 07:55:48;;;;;;;14.02;8.07;;;10.30;50.20;;;4.81;70.11;93902.91;4964973;28;20050;-54
2023/03/08 07:58:17;;;;;;;13.68;7.97;;;10.30;50.10;;;4.80;69.09;93897.91;4966108;28;20030;-51
2023/03/08 08:00:43;;;;;;;10.82;7.53;;;10.40;50.00;;;4.79;70.28;93893.66;4936244;28;20117;-56
2023/03/08 08:03:08;;;;;;;12.80;7.35;;;10.40;49.90;;;4.85;70.13;93889.94;4920909;28;20188;-55
2023/03/08 08:05:37;;;;;;;10.13;6.72;;;10.40;49.90;;;4.92;70.01;93887.03;4952033;28;20030;-55
2023/03/08 08:08:07;;;;;;;10.70;7.15;;;10.40;49.90;;;4.95;71.82;93883.84;4968024;28;20548;-53
2023/03/08 08:10:36;;;;;;;10.43;7.38;;;10.50;49.90;;;5.01;73.73;93888.03;4947069;28;20023;-57
2023/03/08 08:13:07;;;;;;;9.73;6.55;;;10.50;50.10;;;5.03;75.10;93876.16;4970505;28;20026;-55
2023/03/08 08:15:41;;;;;;;10.90;6.18;;;10.60;50.20;;;5.07;74.25;93882.47;4935791;28;20041;-55
2023/03/08 08:18:10;;;;;;;11.02;6.55;;;10.60;50.30;;;5.02;73.43;93892.28;4965221;28;20031;-54
2023/03/08 08:20:36;;;;;;;7.82;5.80;;;10.60;50.40;;;4.98;75.24;93864.84;4968865;28;20379;-57
2023/03/08 08:23:06;;;;;;;7.68;5.57;;;10.50;50.40;;;4.98;74.58;93856.91;4954724;28;20049;-55
2023/03/08 08:25:37;;;;;;;9.57;6.00;;;10.50;50.50;;;5.00;75.26;93849.53;4964438;28;20382;-53
2023/03/08 08:28:03;;;;;;;9.00;5.88;;;10.50;50.60;;;5.00;76.71;93857.44;4952113;28;20034;-56
2023/03/08 08:30:32;;;;;;;9.70;5.90;;;10.50;50.60;;;5.07;74.96;93848.16;4950964;28;20022;-53
2023/03/08 08:33:02;;;;;;;9.52;5.90;;;10.60;50.80;;;5.07;75.46;93853.44;4952169;28;20489;-57
2023/03/08 08:35:31;;;;;;;10.27;6.10;;;10.50;50.80;;;5.03;75.22;93848.97;4933244;28;20058;-57
2023/03/08 08:38:00;;;;;;;12.43;6.18;;;10.50;50.90;;;5.05;73.67;93844.22;4935198;28;20019;-55
2023/03/08 08:40:38;;;;;;;11.88;6.60;;;10.50;50.90;;;5.03;73.26;93841.84;4950644;28;20034;-57
2023/03/08 08:43:10;;;;;;;8.27;5.55;;;10.50;50.90;;;5.04;73.83;93840.78;4941385;28;20031;-53
2023/03/08 08:45:36;;;;;;;8.88;5.40;;;10.40;50.90;;;5.05;73.42;93839.75;4915296;29;20043;-55
2023/03/08 08:48:08;;;;;;;11.20;5.80;;;10.50;51.00;;;4.97;71.20;93831.59;4943353;28;20022;-56
2023/03/08 08:50:40;;;;;;;9.90;6.28;;;10.40;50.90;;;5.03;71.84;93831.28;4957490;28;20508;-50
2023/03/08 08:53:09;;;;;;;8.88;5.85;;;10.40;50.80;;;5.07;70.83;93848.16;4968930;28;20113;-53
2023/03/08 08:55:36;;;;;;;8.15;5.70;;;10.50;50.80;;;5.13;71.72;93851.56;4950342;28;20031;-49
2023/03/08 08:58:04;;;;;;;8.95;5.75;;;10.50;50.70;;;5.22;71.32;93843.88;4935299;28;20050;-52
2023/03/08 09:00:35;;;;;;;8.38;5.35;;;10.50;50.70;;;5.31;72.04;93848.31;4957933;28;20046;-51
2023/03/08 09:03:05;;;;;;;9.88;5.63;;;10.60;50.70;;;5.34;71.88;93845.13;4950255;28;20034;-57
2023/03/08 09:05:36;;;;;;;8.77;5.63;;;10.70;50.70;;;5.39;73.55;93848.78;4952911;28;20033;-57
2023/03/08 09:08:06;;;;;;;8.65;4.82;;;10.70;50.70;;;5.39;74.20;93846.94;4956928;28;20067;-53
2023/03/08 09:10:37;;;;;;;8.13;5.35;;;10.70;50.80;;;5.38;74.61;93847.22;4934684;28;20066;-53
2023/03/08 09:13:05;;;;;;;9.63;5.40;;;10.80;50.90;;;5.33;73.31;93856.75;4950140;28;20026;-52
2023/03/08 09:15:36;;;;;;;10.73;5.68;;;10.70;50.90;;;5.34;73.79;93860.16;4951695;28;20061;-56
2023/03/08 09:18:07;;;;;;;8.95;5.60;;;10.70;51.00;;;5.31;72.75;93869.41;4961444;28;20030;-54
2023/03/08 09:20:36;;;;;;;9.77;5.70;;;10.70;51.00;;;5.38;72.76;93869.13;4946496;28;20394;-52
2023/03/08 09:23:02;;;;;;;9.73;5.82;;;10.70;51.00;;;5.43;72.67;93855.88;4935796;28;20024;-53
2023/03/08 09:25:28;;;;;;;9.15;5.95;;;10.70;51.00;;;5.43;74.73;93865.66;4941973;28;20038;-54
2023/03/08 09:27:56;;;;;;;8.93;5.72;;;10.70;51.00;;;5.47;75.95;93866.69;4941940;28;20069;-52
2023/03/08 09:30:24;;;;;;;9.75;5.85;;;10.70;51.10;;;5.50;75.47;93853.72;4940513;28;21271;-51
2023/03/08 09:32:50;;;;;;;13.27;6.57;;;10.80;51.20;;;5.48;73.90;93863.75;4945489;28;20117;-52
2023/03/08 09:35:25;;;;;;;8.60;5.68;;;10.80;51.20;;;5.50;74.76;93858.22;4943439;28;20033;-54
2023/03/08 09:37:51;;;;;;;8.77;5.93;;;10.80;51.20;;;5.55;75.07;93855.56;4943163;28;20504;-48
2023/03/08 09:40:26;;;;;;;11.57;6.70;;;10.80;51.20;;;5.52;76.26;93867.47;4941947;28;20031;-51
2023/03/08 09:43:05;;;;;;;7.30;5.53;;;10.90;51.40;;;5.58;77.00;93857.66;4911719;28;20401;-50
2023/03/08 09:45:32;;;;;;;10.18;5.93;;;10.90;51.60;;;5.59;75.44;93861.06;4928483;28;20054;-52
2023/03/08 09:48:25;;;;;;;8.07;5.63;;;10.90;51.50;;;5.61;75.67;93866.84;4943308;28;20549;-53
2023/03/08 09:50:58;;;;;;;7.53;5.03;;;11.00;51.60;;;5.70;75.44;93849.34;4944557;28;20118;-49
2023/03/08 09:53:57;;;;;;;8.18;5.70;;;11.10;51.50;;;5.71;77.34;93851.75;4928577;28;20045;-49
2023/03/08 09:56:52;;;;;;;8.20;5.25;;;11.20;51.50;;;5.74;76.59;93866.25;4937990;28;20440;-53
2023/03/08 09:59:43;;;;;;;8.57;5.70;;;11.20;51.40;;;5.73;75.58;93881.28;4949378;28;20045;-51
2023/03/08 10:02:43;;;;;;;9.65;5.97;;;11.20;51.40;;;5.68;75.72;93878.72;4933372;28;20033;-55
2023/03/08 10:06:35;;;;;;;7.25;5.47;;;11.20;51.40;;;5.61;77.73;93875.59;4950680;28;20039;-51
2023/03/08 10:09:35;;;;;;;7.78;5.63;;;11.20;51.50;;;5.67;78.78;93878.97;4895386;29;20039;-50
2023/03/08 10:12:56;;;;;;;10.63;5.88;;;11.10;51.70;;;5.73;81.02;93873.38;4934340;28;20537;-53
2023/03/08 10:15:27;;;;;;;9.50;5.80;;;11.20;52.00;;;5.71;78.77;93864.16;4911521;29;20039;-49
2023/03/08 10:18:25;;;;;;;7.97;5.35;;;11.10;52.00;;;5.63;79.17;93862.88;4950280;28;20081;-48
2023/03/08 10:20:52;;;;;;;8.55;5.70;;;11.00;52.00;;;5.65;80.69;93873.19;4941940;28;20045;-50
2023/03/08 10:23:23;;;;;;;7.45;5.50;;;11.00;52.10;;;5.67;82.73;93892.19;4899753;28;20023;-53
2023/03/08 10:25:50;;;;;;;9.13;6.30;;;11.00;52.40;;;5.73;82.41;93883.94;4946697;28;20037;-49
2023/03/08 10:28:25;;;;;;;10.07;6.63;;;11.00;52.60;;;5.71;82.63;93878.16;4952737;28;20428;-51
2023/03/08 10:30:57;;;;;;;10.65;6.43;;;10.90;52.80;;;5.70;84.10;93896.91;4975133;28;20042;-48
2023/03/08 10:33:34;;;;;;;10.13;6.10;;;10.90;53.00;;;5.65;84.83;93887.19;4936789;28;20505;-49
2023/03/08 10:36:30;;;;;;;8.05;5.50;;;10.90;53.20;;;5.59;85.50;93888.28;4967358;28;20033;-48
2023/03/08 10:39:12;;;;;;;9.13;6.32;;;10.90;53.40;;;5.63;87.09;93884.00;4953986;28;20568;-48
2023/03/08 10:42:00;;;;;;;10.40;6.50;;;10.90;53.60;;;5.56;87.34;93886.19;4964828;28;20022;-51